Time;durP1;ratioP1;P1;durP2;ratioP2;P2;SDS_P1;SDS_P2;PMS_P1;PMS_P2;Temp;Humidity;BMP_temperature;BMP_pressure;BME280_temperature;BME280_humidity;BME280_pressure;Samples;Min_cycle;Max_cycle;Signal;HPM_P1;HPM_P2
2023/08/22 00:08:40;;;;;;;32.50;7.37;;;15.60;99.90;;;;;;1960675;71;32159;-87
2023/08/22 00:25:34;;;;;;;25.17;7.10;;;15.60;99.90;;;;;;1925321;72;27378;-87
2023/08/22 00:31:13;;;;;;;37.67;9.83;;;15.60;99.90;;;;;;1941368;72;27010;-87
2023/08/22 00:34:02;;;;;;;39.20;12.43;;;15.60;99.90;;;;;;1947070;73;25726;-87
2023/08/22 00:39:30;;;;;;;37.23;13.10;;;15.60;99.90;;;;;;1886156;74;27642;-87
2023/08/22 00:44:58;;;;;;;36.43;10.63;;;15.40;99.90;;;;;;1934017;72;27951;-86
2023/08/22 00:50:41;;;;;;;44.07;14.60;;;15.40;99.90;;;;;;1948139;72;27016;-87
2023/08/22 00:53:29;;;;;;;37.77;10.53;;;15.40;99.90;;;;;;1933169;73;25248;-86
2023/08/22 00:56:18;;;;;;;27.43;7.20;;;15.40;99.90;;;;;;1935885;72;25757;-86
2023/08/22 00:59:07;;;;;;;30.50;7.53;;;15.40;99.90;;;;;;1926116;72;25715;-87
2023/08/22 01:01:56;;;;;;;23.13;7.13;;;15.40;99.90;;;;;;1928075;72;25272;-87
2023/08/22 01:04:45;;;;;;;31.70;10.17;;;15.30;99.90;;;;;;1886254;75;25350;-87
2023/08/22 01:07:38;;;;;;;46.73;16.23;;;15.40;99.90;;;;;;1879188;75;25756;-87
2023/08/22 01:13:12;;;;;;;44.57;16.90;;;15.30;99.90;;;;;;1946212;72;26983;-86
2023/08/22 01:16:01;;;;;;;65.57;17.90;;;15.30;99.90;;;;;;1925710;73;25258;-86
2023/08/22 01:21:39;;;;;;;41.67;15.23;;;15.30;99.90;;;;;;1945203;71;27483;-87
2023/08/22 01:24:28;;;;;;;46.53;16.63;;;15.20;99.90;;;;;;1936536;73;25811;-86
2023/08/22 01:30:15;;;;;;;42.10;14.63;;;15.20;99.90;;;;;;1943826;72;27091;-86
2023/08/22 01:33:08;;;;;;;38.97;10.93;;;15.30;99.90;;;;;;1924738;73;25270;-86
2023/08/22 01:35:57;;;;;;;25.63;6.87;;;15.20;99.90;;;;;;1935268;72;25737;-86
2023/08/22 01:38:47;;;;;;;28.63;5.40;;;15.20;99.90;;;;;;1939768;72;25648;-86
2023/08/22 01:41:37;;;;;;;28.70;5.43;;;15.20;99.90;;;;;;1936117;72;25286;-86
2023/08/22 01:44:28;;;;;;;36.27;6.77;;;15.20;99.90;;;;;;1893529;75;25279;-86
2023/08/22 01:54:56;;;;;;;36.20;7.00;;;15.20;99.90;;;;;;1932596;71;26400;-87
2023/08/22 01:57:44;;;;;;;27.77;6.30;;;15.20;99.90;;;;;;1958929;72;25689;-86
2023/08/22 02:00:34;;;;;;;33.50;6.50;;;15.20;99.90;;;;;;1945241;72;25699;-87
2023/08/22 02:03:25;;;;;;;32.80;6.63;;;15.10;99.90;;;;;;1951691;73;25271;-86
2023/08/22 02:06:14;;;;;;;28.30;6.07;;;15.10;99.90;;;;;;1982967;71;25204;-87
2023/08/22 02:09:05;;;;;;;28.50;6.67;;;15.00;99.90;;;;;;1986411;72;25283;-86
2023/08/22 02:11:54;;;;;;;34.90;6.67;;;15.10;99.90;;;;;;1938160;73;25236;-86
2023/08/22 02:14:43;;;;;;;37.33;7.10;;;15.00;99.90;;;;;;1935537;72;25281;-86
2023/08/22 02:17:32;;;;;;;31.77;6.57;;;15.00;99.90;;;;;;1935118;73;25276;-87
2023/08/22 02:20:22;;;;;;;30.23;6.50;;;15.00;99.90;;;;;;1974721;71;25164;-87
2023/08/22 02:23:11;;;;;;;35.13;6.90;;;15.00;99.90;;;;;;1982881;71;25353;-86
2023/08/22 02:25:59;;;;;;;28.07;7.47;;;15.00;99.90;;;;;;1946356;72;25321;-86
2023/08/22 02:28:50;;;;;;;38.67;7.67;;;15.00;99.90;;;;;;1972967;70;25309;-86
2023/08/22 02:31:39;;;;;;;29.37;7.40;;;14.90;99.90;;;;;;1976843;72;25236;-86
2023/08/22 02:47:35;;;;;;;49.83;9.97;;;14.80;99.90;;;;;;1894920;74;27212;-86
2023/08/22 02:53:39;;;;;;;38.57;9.30;;;14.50;99.90;;;;;;1972957;71;27501;-87
2023/08/22 03:11:17;;;;;;;48.30;10.27;;;14.50;99.90;;;;;;1968390;72;27075;-86
2023/08/22 03:14:06;;;;;;;36.80;9.00;;;14.40;99.90;;;;;;1925198;73;25698;-86
2023/08/22 03:16:54;;;;;;;46.03;9.37;;;14.30;99.90;;;;;;1923912;73;25331;-87
2023/08/22 03:22:28;;;;;;;51.47;9.30;;;14.10;99.90;;;;;;1942143;72;27059;-87
2023/08/22 03:27:57;;;;;;;41.97;10.33;;;13.80;99.90;;;;;;1952892;72;27013;-86
2023/08/22 03:30:45;;;;;;;47.93;11.10;;;13.70;99.90;;;;;;1897571;74;25165;-86
2023/08/22 03:33:35;;;;;;;40.47;10.23;;;13.70;99.90;;;;;;1891666;74;25295;-87
2023/08/22 03:36:24;;;;;;;48.93;11.07;;;13.60;99.90;;;;;;1892791;75;25677;-87
2023/08/22 03:39:13;;;;;;;49.80;11.60;;;13.60;99.90;;;;;;1885290;75;25247;-87
2023/08/22 03:42:02;;;;;;;49.83;11.87;;;13.60;99.90;;;;;;1902081;75;25278;-87
2023/08/22 03:44:52;;;;;;;45.17;12.30;;;13.60;99.90;;;;;;1878528;75;25310;-86
2023/08/22 03:50:21;;;;;;;41.57;10.60;;;13.70;99.90;;;;;;1946160;72;27151;-87
2023/08/22 03:53:11;;;;;;;39.00;11.47;;;13.70;99.90;;;;;;1935911;73;25306;-87
2023/08/22 03:59:12;;;;;;;38.63;10.03;;;13.80;99.90;;;;;;1976432;71;26996;-87
2023/08/22 04:02:01;;;;;;;36.60;9.27;;;13.80;99.90;;;;;;2037414;69;25699;-87
2023/08/22 04:04:50;;;;;;;38.37;8.17;;;13.90;99.90;;;;;;2051453;69;25222;-87
2023/08/22 04:07:38;;;;;;;21.07;8.00;;;13.90;99.90;;;;;;2024067;69;25237;-87
2023/08/22 04:10:27;;;;;;;37.47;8.80;;;14.00;99.90;;;;;;2060627;69;25129;-87
2023/08/22 04:16:09;;;;;;;34.80;7.97;;;14.20;99.90;;;;;;1947738;72;27077;-86
2023/08/22 04:18:57;;;;;;;29.10;8.03;;;14.40;99.90;;;;;;1918318;73;25670;-86
2023/08/22 04:21:46;;;;;;;19.13;6.37;;;14.60;99.90;;;;;;1933258;72;25630;-87
2023/08/22 04:27:18;;;;;;;32.10;8.47;;;14.90;99.90;;;;;;1963792;72;26976;-87
2023/08/22 04:30:09;;;;;;;40.57;12.67;;;15.10;99.90;;;;;;1925963;72;25615;-87
2023/08/22 04:32:58;;;;;;;42.20;12.30;;;15.20;99.90;;;;;;1918114;73;25276;-87
2023/08/22 04:35:47;;;;;;;31.40;9.83;;;15.30;99.90;;;;;;1927392;73;25205;-87
2023/08/22 04:38:36;;;;;;;21.00;7.17;;;15.40;99.90;;;;;;1944526;73;25626;-87
2023/08/22 04:41:25;;;;;;;26.57;7.30;;;15.30;99.90;;;;;;1920258;73;25913;-87
2023/08/22 04:44:13;;;;;;;26.90;6.23;;;15.40;99.90;;;;;;1910872;73;25299;-87
2023/08/22 04:47:02;;;;;;;24.27;6.10;;;15.50;99.90;;;;;;1901216;73;25735;-87
2023/08/22 04:49:51;;;;;;;27.23;6.10;;;15.70;99.90;;;;;;1928607;73;25215;-86
2023/08/22 04:52:39;;;;;;;28.37;6.40;;;15.80;99.90;;;;;;1914585;74;25286;-87
2023/08/22 04:58:12;;;;;;;20.83;4.83;;;16.00;99.90;;;;;;1945121;72;26859;-87
2023/08/22 05:03:48;;;;;;;24.57;5.67;;;15.90;99.90;;;;;;1940990;72;26971;-87
2023/08/22 05:06:36;;;;;;;29.97;6.17;;;15.90;99.90;;;;;;1940398;72;25216;-87
2023/08/22 05:09:25;;;;;;;19.53;6.00;;;15.80;99.90;;;;;;1930463;72;25693;-86
2023/08/22 05:12:14;;;;;;;31.17;8.33;;;15.70;99.90;;;;;;1928896;72;25248;-86
2023/08/22 05:15:02;;;;;;;31.57;10.03;;;15.60;99.90;;;;;;1930196;73;25272;-86
2023/08/22 05:17:51;;;;;;;35.10;11.07;;;15.60;99.90;;;;;;1936859;72;25788;-86
2023/08/22 05:20:41;;;;;;;43.10;11.03;;;15.70;99.90;;;;;;1935286;72;25312;-86
2023/08/22 05:23:30;;;;;;;42.43;12.73;;;15.70;99.90;;;;;;1926211;73;25809;-86
2023/08/22 05:26:18;;;;;;;42.97;12.73;;;15.70;99.90;;;;;;1938758;72;25207;-87
2023/08/22 05:29:07;;;;;;;33.53;8.73;;;15.80;99.90;;;;;;1925431;72;25226;-87
2023/08/22 05:35:39;;;;;;;29.83;8.60;;;15.70;99.90;;;;;;1935256;73;26933;-87
2023/08/22 05:38:27;;;;;;;27.73;7.87;;;15.70;99.90;;;;;;1890686;74;25202;-86
2023/08/22 05:41:16;;;;;;;29.00;8.13;;;15.70;99.90;;;;;;1929190;74;25243;-87
2023/08/22 05:47:49;;;;;;;29.13;8.40;;;15.60;99.90;;;;;;1958737;71;27125;-86
2023/08/22 05:50:37;;;;;;;29.90;7.90;;;15.70;99.90;;;;;;1978248;72;25300;-88
2023/08/22 05:53:27;;;;;;;30.83;6.70;;;15.80;99.90;;;;;;1985496;72;25208;-87
2023/08/22 05:56:15;;;;;;;28.37;7.40;;;15.70;99.90;;;;;;1989790;72;25297;-88
2023/08/22 06:01:57;;;;;;;35.43;7.70;;;15.80;99.90;;;;;;1945768;72;27400;-87
2023/08/22 06:04:46;;;;;;;25.47;7.60;;;15.90;99.90;;;;;;1931082;72;25748;-87
2023/08/22 06:07:35;;;;;;;21.77;7.30;;;16.10;99.90;;;;;;1924513;73;25284;-87
2023/08/22 06:10:24;;;;;;;21.77;8.17;;;16.20;99.90;;;;;;1926677;73;25745;-87
2023/08/22 06:13:14;;;;;;;26.97;7.90;;;16.20;99.90;;;;;;1932721;73;25237;-86
2023/08/22 06:18:50;;;;;;;28.77;8.83;;;16.00;99.90;;;;;;1941571;72;27017;-87
2023/08/22 06:21:39;;;;;;;32.73;8.27;;;16.00;99.90;;;;;;1933781;72;25678;-87
2023/08/22 06:24:27;;;;;;;23.20;8.07;;;16.00;99.90;;;;;;1928333;72;25209;-87
2023/08/22 06:27:16;;;;;;;20.67;6.93;;;16.00;99.90;;;;;;1934628;72;25254;-86
2023/08/22 06:30:06;;;;;;;20.63;5.20;;;16.00;99.90;;;;;;1883643;75;25712;-86
2023/08/22 06:32:55;;;;;;;12.87;4.13;;;16.10;99.90;;;;;;1934591;72;25173;-87
2023/08/22 06:35:47;;;;;;;14.90;3.80;;;16.20;99.90;;;;;;1931384;73;25282;-86
2023/08/22 06:42:20;;;;;;;17.53;3.67;;;16.10;99.90;;;;;;1977267;71;26523;-86
2023/08/22 06:47:52;;;;;;;15.67;4.20;;;16.00;99.90;;;;;;1956367;72;27014;-88
2023/08/22 06:50:41;;;;;;;15.33;3.77;;;16.00;99.90;;;;;;1925972;73;25277;-87
2023/08/22 06:53:29;;;;;;;13.87;4.20;;;15.90;99.90;;;;;;1920163;73;25240;-87
2023/08/22 06:56:18;;;;;;;13.83;3.50;;;15.90;99.90;;;;;;1932039;73;25238;-87
2023/08/22 06:59:07;;;;;;;17.67;4.07;;;16.00;99.90;;;;;;1919237;73;25298;-87
2023/08/22 07:01:56;;;;;;;10.67;3.63;;;16.00;99.90;;;;;;1926531;73;25178;-87
2023/08/22 07:07:31;;;;;;;18.10;3.77;;;16.20;99.90;;;;;;2022063;69;26925;-86
2023/08/22 07:23:48;;;;;;;17.13;3.40;;;16.20;99.90;;;;;;1934066;72;27451;-85
2023/08/22 07:29:30;;;;;;;17.27;3.40;;;16.30;99.90;;;;;;1989070;71;27084;-86
2023/08/22 07:32:19;;;;;;;14.63;3.67;;;16.30;99.90;;;;;;1939989;72;25265;-87
2023/08/22 07:35:09;;;;;;;14.03;3.90;;;16.40;99.90;;;;;;1931420;73;25781;-87
2023/08/22 07:40:50;;;;;;;11.13;3.67;;;16.40;99.90;;;;;;1941878;72;27117;-86
2023/08/22 07:43:38;;;;;;;9.67;3.50;;;16.50;99.90;;;;;;1894088;74;25296;-86
2023/08/22 07:51:08;;;;;;;17.13;5.00;;;16.50;99.90;;;;;;2034093;69;26853;-87
2023/08/22 07:53:57;;;;;;;18.33;5.70;;;16.60;99.90;;;;;;1988602;71;25169;-87
2023/08/22 07:56:45;;;;;;;16.43;5.70;;;16.60;99.90;;;;;;1972739;71;25314;-86
2023/08/22 07:59:34;;;;;;;17.13;5.20;;;16.80;99.90;;;;;;1985656;71;25662;-87
2023/08/22 08:15:31;;;;;;;11.00;3.60;;;17.10;99.90;;;;;;1904715;73;28547;-87
2023/08/22 08:21:06;;;;;;;15.47;4.80;;;17.70;99.90;;;;;;1940585;72;26910;-86
2023/08/22 08:23:55;;;;;;;17.47;5.53;;;17.70;99.90;;;;;;1944968;73;25270;-88
2023/08/22 08:26:44;;;;;;;20.30;6.83;;;17.90;99.90;;;;;;1946938;73;25721;-88
2023/08/22 08:29:33;;;;;;;14.07;4.90;;;17.90;99.90;;;;;;1931395;72;25245;-88
2023/08/22 08:35:36;;;;;;;16.23;6.00;;;18.40;99.90;;;;;;1959987;71;26721;-87
2023/08/22 08:38:25;;;;;;;22.00;8.23;;;18.50;99.90;;;;;;1977218;72;25201;-87
2023/08/22 08:41:14;;;;;;;13.97;5.63;;;18.50;99.90;;;;;;1990867;70;25216;-87
2023/08/22 08:46:44;;;;;;;19.97;6.60;;;18.90;99.90;;;;;;1935570;72;27000;-87
2023/08/22 08:49:34;;;;;;;14.67;5.10;;;18.90;99.90;;;;;;1855672;76;25270;-86
2023/08/22 08:52:23;;;;;;;17.87;6.30;;;18.90;99.90;;;;;;1829935;76;25264;-86
2023/08/22 08:55:13;;;;;;;19.40;8.87;;;19.00;99.90;;;;;;1867294;76;25282;-87
2023/08/22 08:58:03;;;;;;;23.43;9.33;;;19.10;99.90;;;;;;1847906;76;25229;-87
2023/08/22 09:00:55;;;;;;;21.27;7.63;;;19.20;99.90;;;;;;1860016;76;25270;-86
2023/08/22 09:03:44;;;;;;;25.37;8.90;;;19.10;99.90;;;;;;1844619;76;25771;-87
2023/08/22 09:06:33;;;;;;;14.73;4.97;;;19.00;99.90;;;;;;1820567;76;25255;-87
2023/08/22 09:09:24;;;;;;;11.47;3.80;;;19.20;99.90;;;;;;1816579;78;25230;-87
2023/08/22 09:12:14;;;;;;;10.43;3.73;;;19.10;99.90;;;;;;1871601;76;25222;-86
2023/08/22 09:15:05;;;;;;;19.97;3.77;;;19.60;99.90;;;;;;1815905;78;26499;-87
2023/08/22 09:17:56;;;;;;;13.87;4.23;;;19.70;99.90;;;;;;1832955;77;25311;-87
2023/08/22 09:20:46;;;;;;;15.13;3.70;;;19.60;99.90;;;;;;1865237;76;25743;-87
2023/08/22 09:23:34;;;;;;;14.57;3.77;;;19.60;99.90;;;;;;1834490;76;25241;-87
2023/08/22 09:42:47;;;;;;;7.93;2.80;;;19.20;99.90;;;;;;1918798;72;27074;-86
2023/08/22 09:45:39;;;;;;;11.03;3.00;;;19.30;99.90;;;;;;1879604;75;25672;-86
2023/08/22 09:48:30;;;;;;;8.93;2.67;;;19.30;99.90;;;;;;1856539;75;26413;-86
2023/08/22 09:54:04;;;;;;;8.70;2.70;;;19.70;99.90;;;;;;1961203;72;27009;-86
2023/08/22 09:56:53;;;;;;;6.00;2.50;;;19.80;99.90;;;;;;1916343;73;25268;-87
2023/08/22 09:59:42;;;;;;;11.73;2.13;;;20.10;99.90;;;;;;1919738;73;25194;-86
2023/08/22 10:02:31;;;;;;;9.20;2.47;;;20.00;99.90;;;;;;1919721;73;26497;-87
2023/08/22 10:09:08;;;;;;;9.50;2.47;;;20.00;99.90;;;;;;1940764;72;26826;-86
2023/08/22 10:12:00;;;;;;;12.30;2.70;;;20.40;99.90;;;;;;1971907;71;25235;-86
2023/08/22 10:14:52;;;;;;;8.63;3.03;;;20.40;99.90;;;;;;1927515;74;25270;-86
2023/08/22 10:17:41;;;;;;;10.60;2.53;;;20.20;99.90;;;;;;1938318;72;25799;-86
2023/08/22 10:20:32;;;;;;;7.87;2.60;;;20.50;99.90;;;;;;1955195;71;25729;-86
2023/08/22 10:26:16;;;;;;;9.17;2.50;;;20.70;99.90;;;;;;1939100;72;26914;-87
2023/08/22 10:32:27;;;;;;;11.90;2.80;;;20.10;99.90;;;;;;1951304;72;27054;-87
2023/08/22 10:35:26;;;;;;;10.07;3.03;;;20.20;99.90;;;;;;1941497;73;25319;-86
2023/08/22 10:38:21;;;;;;;8.53;2.70;;;20.20;99.90;;;;;;1944451;73;25231;-87
2023/08/22 10:43:57;;;;;;;5.93;2.97;;;20.40;99.90;;;;;;2020141;69;27466;-86
2023/08/22 10:47:03;;;;;;;10.10;2.83;;;20.50;99.90;;;;;;1966156;72;25310;-86
2023/08/22 10:49:54;;;;;;;10.03;3.07;;;20.80;99.90;;;;;;1984366;72;25264;-86
2023/08/22 10:52:43;;;;;;;15.00;3.03;;;20.70;99.90;;;;;;1977997;72;25247;-86
2023/08/22 10:55:33;;;;;;;14.03;2.67;;;20.70;99.90;;;;;;1978221;72;25695;-86
2023/08/22 10:58:44;;;;;;;11.43;2.73;;;20.80;99.90;;;;;;1972113;72;25283;-86
2023/08/22 11:01:33;;;;;;;7.40;2.60;;;20.70;99.90;;;;;;1967100;72;25205;-86
2023/08/22 11:04:22;;;;;;;9.43;2.80;;;20.70;99.90;;;;;;1982825;72;25197;-86
2023/08/22 11:07:11;;;;;;;10.57;2.77;;;21.00;99.90;;;;;;1962265;72;25609;-86
2023/08/22 11:10:00;;;;;;;17.37;3.20;;;21.00;99.90;;;;;;1982151;72;25226;-86
2023/08/22 11:12:49;;;;;;;10.20;2.93;;;21.10;99.90;;;;;;1979936;72;25272;-86
2023/08/22 11:15:39;;;;;;;12.07;2.60;;;21.40;99.90;;;;;;1969291;72;25691;-86
2023/08/22 11:18:28;;;;;;;10.00;2.63;;;21.40;99.90;;;;;;1961598;72;25673;-85
2023/08/22 11:21:17;;;;;;;5.17;2.30;;;21.50;99.90;;;;;;1967958;72;25147;-86
2023/08/22 11:24:06;;;;;;;8.47;2.57;;;21.20;99.90;;;;;;1961935;72;25157;-86
2023/08/22 11:26:55;;;;;;;9.57;2.53;;;21.10;99.90;;;;;;1969192;72;25189;-86
2023/08/22 11:29:45;;;;;;;10.80;2.50;;;21.20;99.90;;;;;;1970348;72;25208;-86
2023/08/22 11:32:35;;;;;;;10.17;2.80;;;21.20;99.90;;;;;;1921440;73;25719;-86
2023/08/22 11:35:24;;;;;;;14.77;2.77;;;21.20;99.90;;;;;;1969526;72;25149;-86
2023/08/22 11:38:13;;;;;;;11.57;2.77;;;21.20;99.90;;;;;;1988689;72;25615;-86
2023/08/22 11:41:04;;;;;;;10.40;3.10;;;21.20;99.90;;;;;;1978270;72;25734;-87
2023/08/22 11:46:41;;;;;;;7.03;2.33;;;21.30;99.90;;;;;;1929613;72;27115;-86
2023/08/22 11:52:11;;;;;;;14.07;3.20;;;21.00;99.90;;;;;;1919864;72;27132;-86
2023/08/22 11:55:06;;;;;;;17.50;2.87;;;21.10;99.90;;;;;;1911214;73;25341;-86
2023/08/22 12:00:39;;;;;;;11.53;2.80;;;21.10;99.90;;;;;;1932866;72;27090;-86
2023/08/22 12:06:26;;;;;;;7.53;2.60;;;21.20;99.90;;;;;;1944213;72;26952;-86
2023/08/22 12:09:15;;;;;;;13.83;2.87;;;21.10;99.90;;;;;;1922594;73;25845;-87
2023/08/22 12:14:53;;;;;;;10.47;2.93;;;21.40;99.90;;;;;;1942142;72;28511;-86
2023/08/22 12:17:42;;;;;;;13.93;2.50;;;21.60;99.90;;;;;;1849667;75;25267;-86
2023/08/22 12:20:31;;;;;;;11.70;2.80;;;21.70;99.90;;;;;;1911898;74;25164;-87
2023/08/22 12:23:20;;;;;;;11.77;2.63;;;21.70;99.90;;;;;;1853890;75;25286;-86
2023/08/22 12:26:09;;;;;;;9.97;2.40;;;21.40;99.90;;;;;;1917338;74;25784;-86
2023/08/22 12:28:58;;;;;;;14.33;2.90;;;21.30;99.90;;;;;;1854493;75;25177;-87
2023/08/22 12:31:47;;;;;;;12.03;2.77;;;21.30;99.90;;;;;;1914638;73;25223;-87
2023/08/22 12:34:36;;;;;;;12.63;2.70;;;21.20;99.90;;;;;;1916621;74;25314;-86
2023/08/22 12:37:24;;;;;;;14.50;2.73;;;21.30;99.90;;;;;;1925427;73;25193;-86
2023/08/22 12:40:15;;;;;;;8.70;2.53;;;21.20;99.90;;;;;;1914061;73;25284;-86
2023/08/22 12:43:04;;;;;;;12.17;2.57;;;21.10;99.90;;;;;;1888702;74;26616;-87
2023/08/22 12:45:53;;;;;;;8.50;2.43;;;21.10;99.90;;;;;;1877043;75;25164;-86
2023/08/22 12:48:42;;;;;;;10.00;2.47;;;21.20;99.90;;;;;;1841820;76;25256;-87
2023/08/22 12:54:10;;;;;;;11.60;2.23;;;21.30;99.90;;;;;;1928182;72;26983;-87
2023/08/22 12:56:59;;;;;;;14.20;2.90;;;21.30;99.90;;;;;;1933659;73;25277;-86
2023/08/22 13:02:31;;;;;;;10.23;2.60;;;21.30;99.90;;;;;;1934962;72;26928;-86
2023/08/22 13:05:20;;;;;;;6.97;2.40;;;21.50;99.90;;;;;;1914063;74;25269;-87
2023/08/22 13:08:09;;;;;;;9.83;2.60;;;21.70;99.90;;;;;;1866490;76;25334;-86
2023/08/22 13:10:57;;;;;;;10.73;2.33;;;22.00;99.90;;;;;;1853404;76;25218;-87
2023/08/22 13:13:46;;;;;;;7.27;2.43;;;22.10;99.90;;;;;;1926903;73;25202;-87
2023/08/22 13:16:35;;;;;;;9.13;2.50;;;21.90;99.90;;;;;;1861999;76;25291;-87
2023/08/22 13:19:24;;;;;;;8.87;2.40;;;21.70;99.90;;;;;;1842733;76;25246;-87
2023/08/22 13:22:15;;;;;;;14.93;2.70;;;21.60;99.90;;;;;;1840539;76;25209;-86
2023/08/22 13:25:04;;;;;;;12.70;2.20;;;21.50;99.90;;;;;;1834650;77;25198;-87
2023/08/22 13:27:52;;;;;;;6.60;2.00;;;21.40;99.90;;;;;;1838989;76;25352;-86
2023/08/22 13:30:41;;;;;;;7.83;2.13;;;21.40;99.90;;;;;;1844817;77;25337;-86
2023/08/22 13:33:30;;;;;;;12.87;2.20;;;21.30;99.90;;;;;;1869547;76;25277;-86
2023/08/22 13:36:19;;;;;;;9.43;2.30;;;21.40;99.90;;;;;;1845533;77;25259;-87
2023/08/22 13:39:08;;;;;;;5.70;2.10;;;21.40;99.90;;;;;;1864378;75;25277;-86
2023/08/22 13:44:38;;;;;;;10.63;2.47;;;21.50;99.90;;;;;;1939926;72;27078;-87
2023/08/22 13:50:09;;;;;;;9.13;2.30;;;21.60;99.90;;;;;;1927936;72;26961;-86
2023/08/22 13:52:58;;;;;;;12.43;2.33;;;21.60;99.90;;;;;;1861015;76;25177;-86
2023/08/22 13:55:46;;;;;;;9.57;2.40;;;21.80;99.90;;;;;;1832704;77;25242;-86
2023/08/22 13:58:35;;;;;;;6.50;2.00;;;21.90;99.90;;;;;;1862026;76;25327;-86
2023/08/22 14:01:24;;;;;;;12.43;2.40;;;22.00;99.90;;;;;;1836765;77;25272;-86
2023/08/22 14:04:12;;;;;;;7.87;2.13;;;22.30;99.90;;;;;;1904970;74;25231;-86
2023/08/22 14:07:01;;;;;;;11.40;2.13;;;22.20;99.90;;;;;;1871349;76;25646;-86
2023/08/22 14:09:50;;;;;;;13.20;2.60;;;22.00;99.90;;;;;;1843062;76;25276;-86
2023/08/22 14:15:18;;;;;;;11.47;2.43;;;22.00;99.90;;;;;;1926631;72;27072;-87
2023/08/22 14:18:08;;;;;;;10.27;2.57;;;21.90;99.90;;;;;;1900552;74;25332;-87
2023/08/22 14:23:40;;;;;;;7.17;2.20;;;22.10;99.90;;;;;;1937657;72;27009;-86
2023/08/22 14:26:29;;;;;;;8.30;2.10;;;22.30;99.90;;;;;;1886495;73;25866;-87
2023/08/22 14:29:19;;;;;;;4.50;1.90;;;22.40;99.90;;;;;;1870909;76;25769;-87
2023/08/22 14:32:07;;;;;;;11.90;2.43;;;22.50;99.90;;;;;;1871496;75;25725;-87
2023/08/22 14:34:56;;;;;;;8.43;2.40;;;22.50;99.90;;;;;;1872900;75;25265;-86
2023/08/22 14:37:45;;;;;;;11.73;2.30;;;22.20;99.90;;;;;;1826359;76;25250;-86
2023/08/22 14:40:34;;;;;;;6.37;2.33;;;22.20;99.90;;;;;;1832698;76;25186;-86
2023/08/22 14:43:23;;;;;;;10.40;2.20;;;22.40;99.90;;;;;;1868400;76;25745;-87
2023/08/22 14:46:12;;;;;;;4.67;1.87;;;22.40;99.90;;;;;;1866517;75;25312;-87
2023/08/22 14:51:40;;;;;;;7.33;2.00;;;22.60;99.90;;;;;;1910043;72;27059;-86
2023/08/22 14:57:10;;;;;;;11.37;2.00;;;22.70;99.90;;;;;;1941825;72;27122;-86
2023/08/22 15:00:00;;;;;;;7.57;2.20;;;22.60;99.90;;;;;;1919875;73;25222;-87
2023/08/22 15:02:48;;;;;;;7.70;2.00;;;22.50;99.90;;;;;;1932024;73;25279;-87
2023/08/22 15:05:40;;;;;;;5.23;1.77;;;22.40;99.90;;;;;;1916251;75;25739;-87
2023/08/22 15:08:30;;;;;;;3.53;1.80;;;22.40;99.90;;;;;;1928026;73;25228;-87
2023/08/22 15:11:19;;;;;;;4.73;1.70;;;22.30;99.90;;;;;;1939735;73;25224;-87
2023/08/22 15:14:08;;;;;;;7.10;1.87;;;22.10;99.90;;;;;;1920906;73;26418;-86
2023/08/22 15:16:57;;;;;;;7.23;2.03;;;22.10;99.90;;;;;;1940199;73;25325;-86
2023/08/22 15:19:46;;;;;;;6.63;2.13;;;22.20;99.90;;;;;;1919996;73;25251;-86
2023/08/22 15:25:23;;;;;;;6.33;1.87;;;22.00;99.90;;;;;;1946166;72;27074;-86
2023/08/22 15:28:12;;;;;;;6.27;1.90;;;22.00;99.90;;;;;;1917172;73;25241;-86
2023/08/22 15:31:00;;;;;;;7.20;2.07;;;22.00;99.90;;;;;;1921819;73;25334;-87
2023/08/22 15:33:49;;;;;;;9.00;2.13;;;22.10;99.90;;;;;;1884994;75;25820;-86
2023/08/22 15:36:37;;;;;;;5.60;1.83;;;22.20;99.90;;;;;;1929228;73;25350;-86
2023/08/22 15:39:26;;;;;;;7.63;2.27;;;22.20;99.90;;;;;;1920576;73;25308;-87
2023/08/22 15:44:55;;;;;;;11.07;2.07;;;22.20;99.90;;;;;;1933853;72;27588;-87
2023/08/22 15:50:36;;;;;;;8.40;2.07;;;22.00;99.90;;;;;;1900141;74;26982;-87
2023/08/22 15:53:25;;;;;;;11.47;2.17;;;21.90;99.90;;;;;;1849262;76;25261;-87
2023/08/22 15:56:14;;;;;;;6.17;2.37;;;21.70;99.90;;;;;;1855241;76;25289;-87
2023/08/22 15:59:04;;;;;;;8.73;2.00;;;21.60;99.90;;;;;;1857720;76;25216;-87
2023/08/22 16:01:53;;;;;;;7.87;1.80;;;21.50;99.90;;;;;;1862039;76;25225;-87
2023/08/22 16:04:42;;;;;;;11.43;2.37;;;21.50;99.90;;;;;;1863382;76;25234;-87
2023/08/22 16:10:10;;;;;;;8.83;2.17;;;21.50;99.90;;;;;;1913594;72;26971;-86
2023/08/22 16:12:59;;;;;;;8.57;1.77;;;21.50;99.90;;;;;;1910699;73;25228;-87
2023/08/22 16:18:29;;;;;;;8.43;1.80;;;21.30;99.90;;;;;;1941084;72;27101;-87
2023/08/22 16:21:18;;;;;;;5.60;1.67;;;21.30;99.90;;;;;;1948671;73;25644;-87
2023/08/22 16:24:07;;;;;;;5.37;1.90;;;21.30;99.90;;;;;;1949566;73;25242;-87
2023/08/22 16:26:55;;;;;;;4.20;1.90;;;21.30;99.90;;;;;;1933999;73;25326;-87
2023/08/22 16:29:44;;;;;;;6.47;2.03;;;21.30;99.90;;;;;;1945786;73;25309;-87
2023/08/22 16:32:33;;;;;;;5.17;2.00;;;21.20;99.90;;;;;;1944721;72;25154;-87
2023/08/22 16:35:21;;;;;;;2.93;1.43;;;21.10;99.90;;;;;;1951879;72;25154;-87
2023/08/22 16:38:10;;;;;;;5.63;1.83;;;21.00;99.90;;;;;;1951577;73;25293;-87
2023/08/22 16:40:58;;;;;;;6.77;1.77;;;20.90;99.90;;;;;;1922400;73;25759;-87
2023/08/22 16:46:28;;;;;;;7.53;1.70;;;20.90;99.90;;;;;;1948371;72;26962;-87
2023/08/22 16:49:16;;;;;;;7.23;1.90;;;20.90;99.90;;;;;;1873910;76;25306;-86
2023/08/22 16:52:06;;;;;;;6.13;1.90;;;20.90;99.90;;;;;;1833386;76;25236;-86
2023/08/22 16:54:56;;;;;;;5.90;2.03;;;20.80;99.90;;;;;;1859708;76;25710;-86
2023/08/22 17:00:29;;;;;;;8.20;1.93;;;20.60;99.90;;;;;;1932807;72;27082;-86
2023/08/22 17:03:18;;;;;;;3.57;1.70;;;20.60;99.90;;;;;;1859997;76;25638;-85
2023/08/22 17:06:07;;;;;;;4.10;1.80;;;20.50;99.90;;;;;;1840074;76;25290;-85
2023/08/22 17:08:56;;;;;;;7.10;2.00;;;20.50;99.90;;;;;;1840735;76;25214;-85
2023/08/22 17:11:46;;;;;;;3.87;1.80;;;20.50;99.90;;;;;;1856667;76;25260;-85
2023/08/22 17:17:16;;;;;;;4.70;1.93;;;20.50;99.90;;;;;;1935830;72;27045;-85
2023/08/22 17:20:05;;;;;;;3.57;2.00;;;20.40;99.90;;;;;;1907480;75;25314;-85
2023/08/22 17:22:54;;;;;;;4.77;2.00;;;20.40;99.90;;;;;;1891665;75;25234;-85
2023/08/22 17:25:43;;;;;;;4.10;2.03;;;20.30;99.90;;;;;;1905518;75;25195;-85
2023/08/22 17:28:32;;;;;;;4.50;1.93;;;20.30;99.90;;;;;;1905028;75;25748;-85
2023/08/22 17:34:03;;;;;;;4.87;2.30;;;20.30;99.90;;;;;;1931019;72;27035;-85
2023/08/22 17:36:51;;;;;;;6.60;2.00;;;20.20;99.90;;;;;;1889769;75;25265;-85
2023/08/22 17:42:31;;;;;;;8.87;2.17;;;20.00;99.90;;;;;;1939663;72;27512;-85
2023/08/22 17:45:20;;;;;;;11.00;2.00;;;20.00;99.90;;;;;;1912371;74;25237;-86
2023/08/22 17:50:51;;;;;;;4.33;2.13;;;19.90;99.90;;;;;;1922968;72;27514;-85
2023/08/22 17:56:19;;;;;;;6.80;2.37;;;19.70;99.90;;;;;;1926960;72;27109;-85
2023/08/22 17:59:08;;;;;;;9.50;2.40;;;19.60;99.90;;;;;;1922131;73;25157;-85
2023/08/22 18:01:56;;;;;;;9.37;2.20;;;19.50;99.90;;;;;;1855870;75;25711;-85
2023/08/22 18:04:45;;;;;;;7.70;2.30;;;19.40;99.90;;;;;;1914745;73;25249;-85
2023/08/22 18:10:15;;;;;;;7.47;2.47;;;19.30;99.90;;;;;;1926689;72;27016;-85
2023/08/22 18:13:05;;;;;;;10.63;2.30;;;19.10;99.90;;;;;;1855440;76;25240;-86
2023/08/22 18:16:00;;;;;;;10.57;2.40;;;19.10;99.90;;;;;;1839095;76;25669;-85
2023/08/22 18:21:28;;;;;;;11.53;2.70;;;18.90;99.90;;;;;;1928813;72;27005;-85
2023/08/22 18:24:19;;;;;;;6.93;2.03;;;18.80;99.90;;;;;;1892266;75;25297;-85
2023/08/22 18:27:08;;;;;;;16.47;2.53;;;18.70;99.90;;;;;;1900414;75;25173;-85
2023/08/22 18:29:57;;;;;;;10.40;2.67;;;18.70;99.90;;;;;;1903563;75;25310;-85
2023/08/22 18:32:46;;;;;;;15.53;2.90;;;18.60;99.90;;;;;;1907184;75;25844;-85
2023/08/22 18:35:36;;;;;;;7.77;2.43;;;18.50;99.90;;;;;;1888326;75;25358;-85
2023/08/22 18:38:26;;;;;;;14.10;3.07;;;18.40;99.90;;;;;;1899378;75;25837;-85
2023/08/22 18:41:16;;;;;;;10.23;2.20;;;18.40;99.90;;;;;;1892292;75;25264;-85
2023/08/22 18:44:05;;;;;;;10.93;2.57;;;18.30;99.90;;;;;;1872116;76;25235;-85
2023/08/22 18:46:54;;;;;;;7.33;2.27;;;18.30;99.90;;;;;;1872625;76;25229;-85
2023/08/22 18:52:22;;;;;;;10.33;2.60;;;18.20;99.90;;;;;;1935092;72;26924;-85
2023/08/22 18:55:11;;;;;;;9.63;2.67;;;18.10;99.90;;;;;;1905795;73;25270;-85
2023/08/22 18:58:01;;;;;;;5.70;2.03;;;18.10;99.90;;;;;;1908635;74;25799;-85
2023/08/22 19:03:32;;;;;;;6.33;2.20;;;17.90;99.90;;;;;;1942630;72;27564;-85
2023/08/22 19:09:11;;;;;;;11.80;2.33;;;17.90;99.90;;;;;;1940723;72;26981;-85
2023/08/22 19:11:59;;;;;;;7.00;2.23;;;17.80;99.90;;;;;;1931439;73;25187;-85
2023/08/22 19:17:34;;;;;;;8.97;2.10;;;17.70;99.90;;;;;;1944943;72;27081;-85